createdAt,value
2023-04-19T00:02:03.232Z,6.53
2023-04-19T00:04:30.290Z,6.51
2023-04-19T00:06:58.480Z,6.41
2023-04-19T00:09:25.485Z,6.40
2023-04-19T00:11:53.001Z,6.38
2023-04-19T00:14:20.003Z,6.41
2023-04-19T00:16:47.151Z,6.36
2023-04-19T00:19:14.047Z,6.29
2023-04-19T00:21:41.277Z,6.28
2023-04-19T00:24:08.131Z,6.19
2023-04-19T00:26:34.820Z,6.16
2023-04-19T00:29:01.549Z,6.12
2023-04-19T00:31:28.271Z,6.27
2023-04-19T00:33:55.102Z,6.13
2023-04-19T00:36:21.860Z,6.10
2023-04-19T00:38:48.586Z,6.10
2023-04-19T00:41:16.104Z,6.04
2023-04-19T00:43:42.922Z,6.06
2023-04-19T00:46:10.068Z,6.05
2023-04-19T00:48:36.996Z,6.08
2023-04-19T00:51:04.908Z,5.99
2023-04-19T00:53:31.631Z,6.00
2023-04-19T00:56:02.044Z,5.90
2023-04-19T00:58:31.546Z,5.91
2023-04-19T01:00:58.696Z,5.85
2023-04-19T01:03:27.662Z,5.86
2023-04-19T01:05:55.345Z,5.86
2023-04-19T01:08:22.102Z,5.82
2023-04-19T01:10:48.794Z,5.84
2023-04-19T01:13:15.600Z,5.85
2023-04-19T01:15:42.371Z,5.90
2023-04-19T01:18:09.166Z,5.93
2023-04-19T01:20:36.007Z,5.91
2023-04-19T01:23:02.818Z,5.90
2023-04-19T01:25:29.903Z,6.01
2023-04-19T01:27:56.779Z,5.98
2023-04-19T01:30:23.491Z,5.95
2023-04-19T01:32:50.450Z,5.97
2023-04-19T01:35:17.358Z,5.93
2023-04-19T01:37:44.125Z,5.82
2023-04-19T01:40:11.314Z,5.85
2023-04-19T01:42:38.051Z,5.84
2023-04-19T01:45:05.385Z,5.90
2023-04-19T01:47:32.181Z,5.90
2023-04-19T01:49:58.943Z,5.92
2023-04-19T01:52:25.697Z,5.92
2023-04-19T01:54:52.470Z,5.86
2023-04-19T01:57:19.259Z,5.89
2023-04-19T01:59:46.003Z,5.91
2023-04-19T02:02:12.792Z,5.89
2023-04-19T02:04:39.665Z,5.94
2023-04-19T02:07:06.441Z,5.95
2023-04-19T02:09:36.354Z,5.90
2023-04-19T02:12:04.229Z,5.95
2023-04-19T02:14:31.947Z,5.86
2023-04-19T02:16:58.862Z,5.84
2023-04-19T02:19:25.678Z,5.87
2023-04-19T02:21:53.729Z,6.01
2023-04-19T02:24:20.487Z,5.97
2023-04-19T02:26:47.253Z,5.92
2023-04-19T02:29:14.225Z,5.91
2023-04-19T02:31:41.021Z,5.93
2023-04-19T02:34:07.697Z,5.80
2023-04-19T02:36:34.445Z,5.72
2023-04-19T02:39:01.268Z,5.86
2023-04-19T02:41:27.969Z,5.86
2023-04-19T02:43:54.661Z,5.78
2023-04-19T02:46:21.398Z,5.66
2023-04-19T02:48:48.161Z,5.69
2023-04-19T02:51:16.723Z,5.67
2023-04-19T02:53:43.739Z,5.71
2023-04-19T02:56:10.506Z,5.63
2023-04-19T02:58:37.274Z,5.67
2023-04-19T03:01:04.061Z,5.70
2023-04-19T03:03:31.103Z,5.62
2023-04-19T03:05:58.005Z,5.65
2023-04-19T03:08:24.950Z,5.63
2023-04-19T03:10:51.813Z,5.66
2023-04-19T03:13:18.533Z,5.63
2023-04-19T03:15:45.492Z,5.64
2023-04-19T03:18:12.317Z,5.64
2023-04-19T03:20:39.162Z,5.60
2023-04-19T03:23:06.023Z,5.56
2023-04-19T03:25:33.186Z,5.55
2023-04-19T03:27:59.941Z,5.54
2023-04-19T03:30:26.616Z,5.52
2023-04-19T03:32:53.543Z,5.55
2023-04-19T03:35:21.144Z,5.55
2023-04-19T03:37:47.956Z,5.53
2023-04-19T03:40:14.676Z,5.51
2023-04-19T03:42:41.457Z,5.43
2023-04-19T03:45:08.870Z,5.37
2023-04-19T03:47:36.109Z,5.46
2023-04-19T03:50:03.336Z,5.43
2023-04-19T03:52:30.218Z,5.36
2023-04-19T03:54:56.962Z,5.48
2023-04-19T03:57:23.626Z,5.49
2023-04-19T03:59:50.563Z,5.47
2023-04-19T04:02:17.365Z,5.54
2023-04-19T04:04:44.479Z,5.56
2023-04-19T04:07:11.350Z,5.56
2023-04-19T04:09:38.088Z,5.53
2023-04-19T04:12:04.953Z,5.64
2023-04-19T04:14:31.745Z,5.66
2023-04-19T04:16:58.573Z,5.69
2023-04-19T04:19:25.574Z,5.78
2023-04-19T04:21:52.306Z,5.81
2023-04-19T04:24:20.178Z,5.75
2023-04-19T04:26:47.050Z,5.76
2023-04-19T04:29:14.269Z,5.81
2023-04-19T04:31:41.172Z,5.92
2023-04-19T04:34:09.202Z,5.97
2023-04-19T04:36:37.680Z,5.94
2023-04-19T04:39:06.269Z,5.98
2023-04-19T04:41:33.087Z,5.99
2023-04-19T04:44:12.005Z,6.01
2023-04-19T04:46:39.213Z,6.12
2023-04-19T04:49:06.617Z,6.34
2023-04-19T04:51:34.259Z,6.51
2023-04-19T04:54:01.099Z,6.42
2023-04-19T04:56:27.969Z,6.56
2023-04-19T04:58:54.753Z,6.81
2023-04-19T05:01:22.849Z,6.76
2023-04-19T05:03:50.565Z,6.95
2023-04-19T05:06:17.349Z,6.87
2023-04-19T05:08:45.021Z,7.16
2023-04-19T05:11:11.795Z,7.24
2023-04-19T05:13:38.545Z,7.10
2023-04-19T05:16:05.797Z,7.24
2023-04-19T05:18:32.692Z,7.45
2023-04-19T05:20:59.585Z,7.70
2023-04-19T05:23:26.514Z,7.71
2023-04-19T05:25:53.420Z,7.89
2023-04-19T05:28:20.188Z,7.85
2023-04-19T05:30:46.910Z,7.94
2023-04-19T05:33:13.671Z,7.92
2023-04-19T05:35:40.431Z,7.97
2023-04-19T05:38:07.152Z,7.98
2023-04-19T05:40:35.518Z,8.05
2023-04-19T05:43:02.328Z,8.22
2023-04-19T05:45:29.188Z,8.14
2023-04-19T05:47:56.236Z,8.34
2023-04-19T05:50:23.108Z,8.26
2023-04-19T05:52:49.785Z,8.18
2023-04-19T05:55:18.067Z,8.45
2023-04-19T05:57:44.901Z,8.68
2023-04-19T06:00:12.164Z,8.94
2023-04-19T06:02:39.017Z,9.15
2023-04-19T06:05:09.832Z,9.38
2023-04-19T06:07:43.157Z,9.67
2023-04-19T06:10:14.113Z,9.82
2023-04-19T06:12:40.951Z,9.85
2023-04-19T06:15:08.589Z,10.58
2023-04-19T06:17:35.454Z,12.19
2023-04-19T06:20:02.468Z,13.61
2023-04-19T06:22:30.042Z,13.96
2023-04-19T06:24:56.883Z,14.79
2023-04-19T06:27:23.670Z,14.42
2023-04-19T06:29:51.359Z,14.26
2023-04-19T06:32:18.271Z,13.61
2023-04-19T06:34:44.987Z,13.23
2023-04-19T06:37:11.808Z,13.06
2023-04-19T06:39:38.551Z,12.96
2023-04-19T06:42:05.565Z,12.62
2023-04-19T06:44:32.345Z,13.04
2023-04-19T06:46:59.177Z,13.17
2023-04-19T06:49:26.025Z,13.22
2023-04-19T06:51:53.406Z,13.07
2023-04-19T06:54:20.364Z,13.00
2023-04-19T06:56:49.880Z,13.35
2023-04-19T06:59:19.194Z,13.31
2023-04-19T07:01:47.270Z,13.26
2023-04-19T07:04:14.937Z,13.09
2023-04-19T07:06:42.309Z,13.65
2023-04-19T07:09:09.077Z,13.32
2023-04-19T07:11:36.015Z,12.75
2023-04-19T07:14:02.865Z,12.80
2023-04-19T07:16:29.728Z,12.87
2023-04-19T07:18:57.176Z,12.73
2023-04-19T07:21:26.673Z,12.43
2023-04-19T07:23:53.495Z,12.00
2023-04-19T07:26:20.412Z,11.83
2023-04-19T07:28:47.274Z,12.08
2023-04-19T07:31:18.601Z,12.57
2023-04-19T07:33:45.718Z,11.87
2023-04-19T07:36:12.706Z,12.34
2023-04-19T07:38:40.145Z,12.05
2023-04-19T07:41:06.914Z,12.20
2023-04-19T07:43:33.864Z,12.06
2023-04-19T07:46:01.621Z,11.75
2023-04-19T07:48:28.617Z,12.20
2023-04-19T07:50:55.330Z,11.88
2023-04-19T07:53:22.194Z,12.19
2023-04-19T07:55:48.938Z,12.36
2023-04-19T07:58:15.632Z,12.64
2023-04-19T08:00:42.468Z,12.58
2023-04-19T08:03:09.445Z,12.38
2023-04-19T08:05:36.423Z,12.60
2023-04-19T08:08:03.453Z,12.47
2023-04-19T08:10:30.712Z,12.29
2023-04-19T08:13:05.803Z,12.34
2023-04-19T08:18:07.180Z,11.82
2023-04-19T08:20:34.068Z,11.99
2023-04-19T08:23:10.563Z,12.14
2023-04-19T08:25:45.288Z,12.06
2023-04-19T08:28:12.514Z,12.55
2023-04-19T08:30:40.341Z,12.47
2023-04-19T08:33:07.249Z,12.36
2023-04-19T08:35:36.176Z,12.71
2023-04-19T08:38:04.806Z,12.84
2023-04-19T08:40:31.742Z,12.84
2023-04-19T08:42:59.092Z,12.56
2023-04-19T08:45:30.119Z,12.71
2023-04-19T08:48:01.395Z,12.84
2023-04-19T08:53:16.418Z,12.71
2023-04-19T08:58:30.718Z,13.17
2023-04-19T09:01:08.354Z,13.48
2023-04-19T09:03:56.059Z,13.67
2023-04-19T09:06:27.981Z,13.74
2023-04-19T09:11:58.172Z,14.98
2023-04-19T09:14:26.630Z,14.79
2023-04-19T09:16:53.426Z,15.11
2023-04-19T09:19:24.922Z,15.12
2023-04-19T09:21:54.544Z,15.46
2023-04-19T09:25:13.879Z,15.60
2023-04-19T09:27:33.903Z,15.12
2023-04-19T09:30:02.092Z,16.15
2023-04-19T09:32:44.463Z,16.07
2023-04-19T09:35:11.288Z,16.12
2023-04-19T09:40:28.041Z,16.44
2023-04-19T09:43:08.872Z,16.48
2023-04-19T09:45:46.452Z,16.90
2023-04-19T09:48:13.557Z,17.00
2023-04-19T09:51:00.246Z,16.90
2023-04-19T09:53:34.194Z,17.08
2023-04-19T09:56:03.103Z,17.60
2023-04-19T10:01:13.321Z,17.69
2023-04-19T10:03:45.771Z,17.67
2023-04-19T10:08:51.200Z,17.85
2023-04-19T10:11:21.891Z,18.21
2023-04-19T10:13:53.091Z,17.23
2023-04-19T10:16:20.828Z,15.82
2023-04-19T10:18:50.624Z,16.79
2023-04-19T10:21:19.120Z,16.70
2023-04-19T10:23:46.472Z,17.04
2023-04-19T10:26:13.236Z,16.76
2023-04-19T10:28:42.064Z,16.55
2023-04-19T10:31:12.893Z,16.99
2023-04-19T10:33:40.736Z,17.28
2023-04-19T10:36:14.178Z,16.40
2023-04-19T10:38:55.678Z,16.12
2023-04-19T10:41:23.016Z,16.11
2023-04-19T10:43:56.072Z,15.81
2023-04-19T10:46:23.154Z,15.65
2023-04-19T10:49:00.416Z,15.15
2023-04-19T10:51:39.084Z,14.59
2023-04-19T10:54:05.998Z,14.91
2023-04-19T10:56:32.770Z,14.67
2023-04-19T10:59:08.184Z,14.63
2023-04-19T11:01:43.332Z,14.82
2023-04-19T11:04:37.825Z,15.31
2023-04-19T11:07:07.372Z,14.72
2023-04-19T11:09:36.592Z,14.13
2023-04-19T11:12:04.822Z,13.50
2023-04-19T11:14:34.751Z,13.58
2023-04-19T11:17:13.686Z,13.56
2023-04-19T11:19:43.584Z,13.40
2023-04-19T11:22:10.472Z,13.51
2023-04-19T11:24:37.139Z,13.38
2023-04-19T11:27:09.515Z,13.14
2023-04-19T11:29:36.349Z,13.45
2023-04-19T11:32:04.508Z,14.36
2023-04-19T11:34:39.402Z,14.38
2023-04-19T11:37:06.210Z,15.32
2023-04-19T11:39:33.157Z,16.11
2023-04-19T11:42:00.141Z,16.92
2023-04-19T11:44:27.202Z,17.49
2023-04-19T11:47:05.151Z,17.37
2023-04-19T11:49:33.634Z,16.65
2023-04-19T11:52:04.609Z,16.57
2023-04-19T11:54:33.257Z,16.82
2023-04-19T11:57:03.755Z,16.98
2023-04-19T11:59:32.519Z,17.58
2023-04-19T12:02:06.383Z,17.39
2023-04-19T12:04:33.600Z,17.82
2023-04-19T12:07:02.628Z,18.07
2023-04-19T12:09:30.073Z,17.93
2023-04-19T12:11:58.344Z,18.89
2023-04-19T12:14:26.726Z,17.55
2023-04-19T12:17:05.742Z,17.93
2023-04-19T12:19:37.766Z,17.22
2023-04-19T12:22:09.149Z,17.49
2023-04-19T12:24:35.921Z,17.46
2023-04-19T12:27:03.244Z,17.81
2023-04-19T12:29:30.981Z,17.83
2023-04-19T12:31:57.794Z,17.80
2023-04-19T12:34:24.489Z,17.75
2023-04-19T12:36:51.391Z,17.60
2023-04-19T12:39:18.268Z,17.99
2023-04-19T12:41:45.823Z,18.34
2023-04-19T12:44:12.638Z,18.28
2023-04-19T12:46:39.784Z,17.89
2023-04-19T12:49:06.758Z,18.30
2023-04-19T12:51:33.718Z,18.55
2023-04-19T12:54:00.884Z,18.61
2023-04-19T12:56:27.667Z,18.93
2023-04-19T12:58:54.414Z,18.48
2023-04-19T13:01:21.271Z,18.63
2023-04-19T13:03:48.252Z,17.36
2023-04-19T13:06:16.910Z,17.62
2023-04-19T13:08:46.642Z,18.52
2023-04-19T13:11:16.090Z,18.83
2023-04-19T13:13:42.982Z,18.44
2023-04-19T13:16:09.901Z,18.24
2023-04-19T13:18:36.619Z,18.35
2023-04-19T13:21:03.995Z,17.84
2023-04-19T13:23:31.857Z,17.77
2023-04-19T13:25:58.758Z,17.30
2023-04-19T13:28:25.468Z,16.77
2023-04-19T13:30:52.394Z,18.17
2023-04-19T13:33:19.557Z,17.30
2023-04-19T13:35:46.753Z,18.11
2023-04-19T13:38:13.788Z,17.41
2023-04-19T13:40:40.707Z,17.17
2023-04-19T13:43:07.589Z,17.01
2023-04-19T13:45:34.905Z,16.19
2023-04-19T13:48:01.779Z,16.03
2023-04-19T13:50:29.778Z,15.88
2023-04-19T13:52:57.469Z,15.71
2023-04-19T13:55:24.558Z,15.08
2023-04-19T13:57:51.376Z,14.73
2023-04-19T14:00:18.977Z,14.84
2023-04-19T14:02:46.066Z,14.37
2023-04-19T14:05:13.045Z,14.38
2023-04-19T14:07:40.740Z,14.38
2023-04-19T14:10:09.496Z,14.37
2023-04-19T14:12:36.377Z,14.33
2023-04-19T14:15:04.240Z,13.58
2023-04-19T14:17:31.075Z,13.55
2023-04-19T14:19:57.908Z,13.63
2023-04-19T14:22:24.665Z,13.85
2023-04-19T14:24:51.663Z,13.91
2023-04-19T14:27:19.263Z,13.34
2023-04-19T14:29:46.104Z,13.37
2023-04-19T14:32:24.852Z,12.92
2023-04-19T14:34:55.142Z,12.64
2023-04-19T14:37:23.371Z,12.49
2023-04-19T14:39:50.371Z,12.47
2023-04-19T14:42:17.145Z,12.59
2023-04-19T14:44:45.247Z,12.46
2023-04-19T14:47:12.385Z,12.23
2023-04-19T14:49:39.964Z,12.30
2023-04-19T14:52:06.792Z,12.15
2023-04-19T14:54:33.597Z,12.28
2023-04-19T14:57:01.342Z,12.45
2023-04-19T14:59:29.768Z,12.69
2023-04-19T15:01:56.919Z,12.69
2023-04-19T15:04:24.118Z,12.26
2023-04-19T15:06:51.116Z,12.22
2023-04-19T15:09:18.546Z,12.11
2023-04-19T15:11:45.741Z,11.86
2023-04-19T15:14:12.707Z,11.63
2023-04-19T15:16:39.650Z,11.71
2023-04-19T15:19:07.489Z,11.59
2023-04-19T15:21:34.779Z,11.45
2023-04-19T15:24:01.730Z,11.13
2023-04-19T15:26:28.764Z,11.20
2023-04-19T15:28:56.313Z,11.19
2023-04-19T15:31:25.511Z,11.05
2023-04-19T15:33:53.428Z,11.15
2023-04-19T15:36:20.175Z,11.10
2023-04-19T15:38:47.020Z,11.02
2023-04-19T15:41:13.879Z,11.01
2023-04-19T15:43:40.686Z,11.01
2023-04-19T15:46:12.036Z,10.89
2023-04-19T15:48:42.725Z,10.87
2023-04-19T15:51:11.451Z,10.80
2023-04-19T15:53:38.953Z,10.69
2023-04-19T15:56:06.161Z,10.87
2023-04-19T15:58:33.108Z,10.73
2023-04-19T16:00:59.858Z,10.68
2023-04-19T16:03:26.823Z,10.70
2023-04-19T16:05:55.461Z,10.72
2023-04-19T16:08:22.626Z,10.84
2023-04-19T16:10:49.899Z,10.83
2023-04-19T16:13:16.906Z,10.82
2023-04-19T16:15:44.716Z,10.85
2023-04-19T16:18:13.119Z,10.75
2023-04-19T16:20:41.746Z,10.90
2023-04-19T16:23:09.012Z,10.81
2023-04-19T16:25:36.043Z,10.79
2023-04-19T16:28:03.018Z,11.04
2023-04-19T16:30:29.856Z,10.84
2023-04-19T16:32:57.606Z,10.70
2023-04-19T16:35:25.725Z,10.70
2023-04-19T16:37:55.135Z,10.70
2023-04-19T16:40:23.626Z,10.72
2023-04-19T16:42:50.399Z,10.56
2023-04-19T16:45:19.944Z,10.56
2023-04-19T16:47:46.974Z,10.60
2023-04-19T16:50:14.405Z,10.57
2023-04-19T16:52:41.411Z,10.46
2023-04-19T16:55:08.737Z,10.44
2023-04-19T16:57:36.601Z,10.35
2023-04-19T17:00:05.776Z,10.34
2023-04-19T17:02:33.633Z,10.30
2023-04-19T17:05:01.235Z,10.26
2023-04-19T17:07:28.549Z,10.28
2023-04-19T17:09:55.850Z,10.24
2023-04-19T17:12:23.116Z,10.23
2023-04-19T17:14:50.305Z,10.27
2023-04-19T17:17:20.070Z,10.23
2023-04-19T17:19:47.118Z,10.21
2023-04-19T17:22:17.052Z,10.16
2023-04-19T17:24:43.794Z,10.16
2023-04-19T17:27:11.002Z,10.22
2023-04-19T17:29:37.961Z,10.23
2023-04-19T17:32:06.123Z,10.27
2023-04-19T17:34:35.400Z,10.23
2023-04-19T17:37:03.900Z,10.21
2023-04-19T17:39:30.732Z,10.29
2023-04-19T17:41:57.923Z,10.21
2023-04-19T17:44:24.949Z,10.19
2023-04-19T17:46:51.858Z,10.23
2023-04-19T17:49:20.236Z,10.19
2023-04-19T17:51:47.592Z,10.16
2023-04-19T17:54:15.327Z,10.13
2023-04-19T17:56:42.195Z,10.10
2023-04-19T17:59:09.013Z,10.16
2023-04-19T18:01:36.081Z,10.11
2023-04-19T18:04:03.535Z,10.07
2023-04-19T18:06:31.691Z,10.03
2023-04-19T18:08:58.974Z,10.05
2023-04-19T18:11:28.333Z,10.03
2023-04-19T18:13:55.869Z,9.98
2023-04-19T18:16:23.036Z,9.90
2023-04-19T18:18:50.338Z,9.89
2023-04-19T18:21:18.498Z,9.83
2023-04-19T18:23:45.699Z,9.64
2023-04-19T18:26:12.527Z,9.23
2023-04-19T18:28:41.092Z,8.98
2023-04-19T18:31:09.664Z,8.91
2023-04-19T18:33:36.589Z,8.72
2023-04-19T18:36:04.336Z,8.57
2023-04-19T18:38:31.405Z,8.51
2023-04-19T18:40:59.267Z,8.47
2023-04-19T18:43:28.155Z,8.58
2023-04-19T18:45:56.194Z,8.68
2023-04-19T18:48:28.198Z,8.68
2023-04-19T18:50:57.329Z,8.71
2023-04-19T18:53:27.647Z,8.66
2023-04-19T18:55:58.200Z,8.46
2023-04-19T18:58:26.758Z,8.32
2023-04-19T19:00:54.771Z,8.19
2023-04-19T19:03:52.676Z,8.11
2023-04-19T19:06:10.198Z,8.13
2023-04-19T19:08:37.378Z,8.14
2023-04-19T19:13:34.239Z,8.26
2023-04-19T19:16:01.095Z,8.41
2023-04-19T19:18:29.567Z,8.43
2023-04-19T19:21:03.100Z,8.43
2023-04-19T19:23:35.902Z,8.46
2023-04-19T19:26:06.419Z,8.34
2023-04-19T19:28:33.202Z,8.19
2023-04-19T19:31:00.018Z,8.18
2023-04-19T19:33:28.632Z,8.09
2023-04-19T19:35:55.848Z,8.27
2023-04-19T19:38:22.611Z,8.29
2023-04-19T19:43:19.168Z,8.41
2023-04-19T19:45:45.912Z,8.36
2023-04-19T19:48:12.742Z,8.42
2023-04-19T19:51:07.388Z,8.44
2023-04-19T19:53:26.274Z,8.38
2023-04-19T19:55:53.111Z,8.38
2023-04-19T19:58:42.583Z,8.44
2023-04-19T20:01:07.297Z,8.53
2023-04-19T20:03:37.284Z,8.58
2023-04-19T20:06:35.499Z,8.65
2023-04-19T20:08:56.164Z,8.76
2023-04-19T20:11:23.513Z,8.78
2023-04-19T20:13:50.789Z,8.77
2023-04-19T20:16:20.942Z,8.87
2023-04-19T20:18:49.238Z,8.85
2023-04-19T20:21:17.917Z,8.82
2023-04-19T20:23:44.706Z,8.85
2023-04-19T20:26:11.432Z,8.86
2023-04-19T20:28:38.305Z,8.85
2023-04-19T20:31:06.308Z,8.81
2023-04-19T20:33:33.090Z,8.82
2023-04-19T20:36:00.581Z,8.80
2023-04-19T20:38:27.364Z,8.80
2023-04-19T20:40:54.054Z,8.79
2023-04-19T20:43:20.966Z,8.85
2023-04-19T20:45:47.944Z,8.77
2023-04-19T20:48:14.643Z,8.78
2023-04-19T20:50:41.996Z,8.80
2023-04-19T20:53:08.791Z,8.81
2023-04-19T20:55:35.713Z,8.79
2023-04-19T20:58:03.393Z,8.82
2023-04-19T21:00:30.235Z,8.83
2023-04-19T21:02:57.044Z,8.83
2023-04-19T21:05:23.924Z,8.83
2023-04-19T21:07:50.708Z,8.75
2023-04-19T21:10:17.572Z,8.78
2023-04-19T21:12:44.761Z,8.78
2023-04-19T21:15:12.207Z,8.76
2023-04-19T21:17:39.466Z,8.73
2023-04-19T21:20:12.450Z,8.80
2023-04-19T21:22:42.933Z,8.64
2023-04-19T21:25:12.597Z,8.73
2023-04-19T21:27:40.617Z,8.65
2023-04-19T21:30:08.556Z,8.64
2023-04-19T21:32:35.431Z,8.63
2023-04-19T21:35:02.383Z,8.67
2023-04-19T21:37:29.095Z,8.59
2023-04-19T21:39:56.031Z,8.60
2023-04-19T21:42:22.800Z,8.56
2023-04-19T21:44:49.562Z,8.46
2023-04-19T21:47:16.347Z,8.46
2023-04-19T21:49:43.201Z,8.46
2023-04-19T21:52:09.974Z,8.45
2023-04-19T21:54:36.639Z,8.39
2023-04-19T21:57:03.414Z,8.37
2023-04-19T21:59:30.952Z,8.43
2023-04-19T22:01:58.758Z,8.47
2023-04-19T22:04:26.194Z,8.43
2023-04-19T22:06:53.896Z,8.41
2023-04-19T22:09:20.736Z,8.38
2023-04-19T22:11:47.486Z,8.39
2023-04-19T22:14:14.311Z,8.32
2023-04-19T22:16:42.230Z,8.34
2023-04-19T22:19:09.075Z,8.33
2023-04-19T22:21:36.250Z,8.24
2023-04-19T22:24:03.673Z,8.17
2023-04-19T22:26:30.591Z,8.18
2023-04-19T22:28:57.391Z,8.16
2023-04-19T22:31:24.141Z,8.13
2023-04-19T22:33:50.968Z,8.09
2023-04-19T22:36:18.023Z,8.09
2023-04-19T22:38:44.863Z,8.03
2023-04-19T22:41:11.592Z,7.97
2023-04-19T22:43:38.428Z,8.02
2023-04-19T22:46:05.978Z,7.99
2023-04-19T22:48:32.908Z,7.96
2023-04-19T22:51:00.779Z,7.98
2023-04-19T22:53:27.933Z,7.98
2023-04-19T22:55:54.630Z,7.89
2023-04-19T22:58:22.144Z,7.91
2023-04-19T23:00:50.045Z,7.87
2023-04-19T23:03:17.106Z,7.92
2023-04-19T23:05:44.453Z,7.90
2023-04-19T23:08:12.835Z,7.89
2023-04-19T23:10:42.393Z,7.86
2023-04-19T23:13:11.917Z,7.71
2023-04-19T23:15:39.279Z,7.71
2023-04-19T23:18:06.219Z,7.67
2023-04-19T23:20:33.283Z,7.57
2023-04-19T23:23:00.148Z,7.60
2023-04-19T23:25:27.043Z,7.56
2023-04-19T23:27:53.711Z,7.59
2023-04-19T23:30:20.764Z,7.62
2023-04-19T23:32:47.662Z,7.55
2023-04-19T23:35:14.502Z,7.45
2023-04-19T23:37:41.293Z,7.47
2023-04-19T23:40:09.249Z,7.35
2023-04-19T23:42:38.211Z,7.38
2023-04-19T23:45:06.580Z,7.41
2023-04-19T23:47:34.264Z,7.42
2023-04-19T23:50:01.045Z,7.27
2023-04-19T23:52:27.758Z,7.41
2023-04-19T23:54:54.510Z,7.43
2023-04-19T23:57:21.431Z,7.43
2023-04-19T23:59:48.134Z,7.40
